WABB/BIK METAR and TAF weather

Enter ICAO airport designator
Station Type Date Time Source
WABB METAR 2022/03/03 11:00 UTC NOAA

WABB 031100Z 0312/0418 00000KT 9999 SCT018 BECMG 0322/0400 27006KT


Station Type Date Time Source
WABB Decoded METAR 2022/03/03 11:00 UTC NOAA

Biak / Mokmer, Indonesia (WABB) 01-11S 136-07E 11M
Mar 03, 2022 - 06:00 AM EST / 2022.03.03 1100 UTC
Wind: Calm:0
Visibility: greater than 7 mile(s):0
Sky conditions: partly cloudy
ob: WABB 031100Z 0312/0418 00000KT 9999 SCT018 BECMG 0322/0400 27006KT
cycle: 11

Station Type Date Time Source
WABB TAF 2022/06/27 18:10 UTC NOAA

TAF WABB 271700Z 2718/2900 04003KT 6000 RA FEW017CB SCT018
BECMG 2721/2723 11006KT 9999 NSW SCT018

Example: see airport list